Time;durP1;ratioP1;P1;durP2;ratioP2;P2;SDS_P1;SDS_P2;PMS_P1;PMS_P2;Temp;Humidity;BMP_temperature;BMP_pressure;BME280_temperature;BME280_humidity;BME280_pressure;Samples;Min_cycle;Max_cycle;Signal;HPM_P1;HPM_P2
2023/07/30 00:02:16;;;;;;;4.70;1.88;;;16.90;99.90;;;;;;5014339;28;20044;-51
2023/07/30 00:04:42;;;;;;;4.22;1.20;;;16.90;99.90;;;;;;5014356;28;20549;-53
2023/07/30 00:07:07;;;;;;;4.25;1.80;;;16.80;99.90;;;;;;5014335;28;20125;-52
2023/07/30 00:09:33;;;;;;;2.90;1.40;;;16.70;99.90;;;;;;5014486;28;20471;-53
2023/07/30 00:11:58;;;;;;;2.83;1.60;;;16.60;99.90;;;;;;5014117;28;20026;-52
2023/07/30 00:14:24;;;;;;;3.22;1.38;;;16.50;99.90;;;;;;5014152;28;20064;-53
2023/07/30 00:16:50;;;;;;;7.22;2.22;;;16.50;99.90;;;;;;5014348;28;20044;-51
2023/07/30 00:19:15;;;;;;;5.38;1.50;;;16.50;99.90;;;;;;5014065;28;20088;-53
2023/07/30 00:21:45;;;;;;;4.30;1.85;;;16.50;99.90;;;;;;5014007;28;20059;-53
2023/07/30 00:24:11;;;;;;;5.43;2.00;;;16.40;99.90;;;;;;5014265;28;20454;-50
2023/07/30 00:26:38;;;;;;;4.32;1.65;;;16.40;99.90;;;;;;5014117;28;20042;-54
2023/07/30 00:29:03;;;;;;;7.32;2.22;;;16.30;99.90;;;;;;5012870;28;20037;-52
2023/07/30 00:31:29;;;;;;;3.75;1.70;;;16.20;99.90;;;;;;5014091;28;20101;-54
2023/07/30 00:33:55;;;;;;;5.47;2.30;;;16.00;99.90;;;;;;5013905;28;20430;-53
2023/07/30 00:36:20;;;;;;;3.25;1.70;;;15.90;99.90;;;;;;5013867;28;20095;-53
2023/07/30 00:38:46;;;;;;;4.38;1.50;;;15.80;99.90;;;;;;5012684;28;20095;-53
2023/07/30 00:41:12;;;;;;;4.38;1.90;;;15.80;99.90;;;;;;5012481;28;20042;-54
2023/07/30 00:43:37;;;;;;;4.60;1.70;;;15.90;99.90;;;;;;5013317;28;20049;-53
2023/07/30 00:46:03;;;;;;;5.75;1.77;;;15.90;99.90;;;;;;5011579;28;20505;-54
2023/07/30 00:48:30;;;;;;;2.72;1.63;;;16.00;99.90;;;;;;5011966;28;20124;-51
2023/07/30 00:50:58;;;;;;;3.45;1.83;;;16.00;99.90;;;;;;5013524;28;20033;-54
2023/07/30 00:53:25;;;;;;;3.15;1.67;;;16.00;99.90;;;;;;5013367;28;20029;-54
2023/07/30 00:55:50;;;;;;;3.83;1.70;;;16.00;99.90;;;;;;5012238;28;20026;-50
2023/07/30 00:58:18;;;;;;;4.25;1.50;;;16.10;99.90;;;;;;5012307;28;20463;-50
2023/07/30 01:00:44;;;;;;;3.50;1.88;;;16.10;99.90;;;;;;5012235;28;20040;-54
2023/07/30 01:03:10;;;;;;;6.53;1.85;;;16.10;99.90;;;;;;5011879;28;20044;-53
2023/07/30 01:05:36;;;;;;;1.85;1.25;;;16.00;99.90;;;;;;5013875;28;20297;-53
2023/07/30 01:08:01;;;;;;;4.80;1.90;;;16.00;99.90;;;;;;5012103;28;20034;-54
2023/07/30 01:10:30;;;;;;;4.25;2.22;;;15.90;99.90;;;;;;5011912;28;20144;-49
2023/07/30 01:12:56;;;;;;;6.32;2.05;;;15.90;99.90;;;;;;5012949;28;20045;-54
2023/07/30 01:15:21;;;;;;;5.60;2.30;;;15.80;99.90;;;;;;5011704;28;20494;-54
2023/07/30 01:17:47;;;;;;;4.15;1.92;;;15.70;99.90;;;;;;5011464;28;20502;-53
2023/07/30 01:20:13;;;;;;;4.03;1.80;;;15.70;99.90;;;;;;5012915;28;20076;-52
2023/07/30 01:22:38;;;;;;;3.83;1.80;;;15.70;99.90;;;;;;5011318;28;20037;-50
2023/07/30 01:25:04;;;;;;;4.05;2.05;;;15.70;99.90;;;;;;5011485;28;20037;-52
2023/07/30 01:27:36;;;;;;;4.57;1.85;;;15.70;99.90;;;;;;5011303;28;20026;-52
2023/07/30 01:30:25;;;;;;;4.85;2.10;;;15.70;99.90;;;;;;5011378;28;20064;-51
2023/07/30 01:32:52;;;;;;;6.35;1.75;;;15.70;99.90;;;;;;5012399;28;20033;-53
2023/07/30 01:35:21;;;;;;;4.65;2.05;;;15.70;99.90;;;;;;5011410;28;20038;-54
2023/07/30 01:37:47;;;;;;;4.28;2.10;;;15.70;99.90;;;;;;5011225;28;20145;-53
2023/07/30 01:40:14;;;;;;;4.93;2.08;;;15.70;99.90;;;;;;5012403;28;20187;-50
2023/07/30 01:42:39;;;;;;;4.93;2.00;;;15.60;99.90;;;;;;5010971;28;20529;-49
2023/07/30 01:45:06;;;;;;;5.53;2.17;;;15.60;99.90;;;;;;5012473;28;20057;-49
2023/07/30 01:47:32;;;;;;;3.38;1.83;;;15.60;99.90;;;;;;5010826;28;20065;-48
2023/07/30 01:49:57;;;;;;;4.05;1.83;;;15.70;99.90;;;;;;5012451;28;20076;-49
2023/07/30 01:52:24;;;;;;;6.20;1.88;;;15.70;99.90;;;;;;5010667;28;20021;-50
2023/07/30 01:54:50;;;;;;;6.95;2.08;;;15.60;99.90;;;;;;5010690;28;20091;-50
2023/07/30 01:57:16;;;;;;;7.00;1.80;;;15.60;99.90;;;;;;5010770;28;20038;-51
2023/07/30 01:59:42;;;;;;;7.43;2.10;;;15.60;99.90;;;;;;5010733;28;20037;-49
2023/07/30 02:02:08;;;;;;;8.25;2.33;;;15.60;99.90;;;;;;5010471;28;20026;-49
2023/07/30 02:04:34;;;;;;;7.63;2.25;;;15.50;99.90;;;;;;5011924;28;20096;-50
2023/07/30 02:06:59;;;;;;;6.72;2.00;;;15.50;99.90;;;;;;5011112;28;20502;-54
2023/07/30 02:09:25;;;;;;;6.57;2.47;;;15.50;99.90;;;;;;5011189;28;20194;-54
2023/07/30 02:11:51;;;;;;;6.95;2.40;;;15.50;99.90;;;;;;5010857;28;20054;-54
2023/07/30 02:14:18;;;;;;;6.55;2.10;;;15.60;99.90;;;;;;5011995;28;20022;-50
2023/07/30 02:16:44;;;;;;;5.28;2.05;;;15.60;99.90;;;;;;5010829;28;20026;-53
2023/07/30 02:19:09;;;;;;;5.28;2.30;;;15.50;99.90;;;;;;5012179;28;20053;-54
2023/07/30 02:21:36;;;;;;;7.20;2.00;;;15.50;99.90;;;;;;5011938;28;20109;-52
2023/07/30 02:24:02;;;;;;;5.80;2.28;;;15.40;99.90;;;;;;5010571;28;20030;-54
2023/07/30 02:26:28;;;;;;;5.07;2.50;;;15.40;99.90;;;;;;5010794;28;20084;-53
2023/07/30 02:28:54;;;;;;;3.75;1.88;;;15.40;99.90;;;;;;5011044;28;20040;-52
2023/07/30 02:31:19;;;;;;;2.92;1.70;;;15.40;99.90;;;;;;5012138;28;20025;-52
2023/07/30 02:33:46;;;;;;;4.93;2.25;;;15.40;99.90;;;;;;5012078;28;20390;-54
2023/07/30 02:36:11;;;;;;;6.03;2.00;;;15.40;99.90;;;;;;5010975;28;20033;-52
2023/07/30 02:38:37;;;;;;;4.32;1.75;;;15.40;99.90;;;;;;5011217;28;20054;-49
2023/07/30 02:41:02;;;;;;;6.32;2.50;;;15.30;99.90;;;;;;5011252;28;20041;-50
2023/07/30 02:43:28;;;;;;;4.50;1.95;;;15.30;99.90;;;;;;5011508;28;20463;-51
2023/07/30 02:45:54;;;;;;;4.63;2.30;;;15.20;99.90;;;;;;5011679;28;20505;-48
2023/07/30 02:48:19;;;;;;;4.80;1.90;;;15.20;99.90;;;;;;5011687;28;20033;-48
2023/07/30 02:50:45;;;;;;;9.27;2.75;;;15.20;99.90;;;;;;5011826;28;20109;-50
2023/07/30 02:53:11;;;;;;;6.70;2.85;;;15.20;99.90;;;;;;5011511;28;20034;-48
2023/07/30 02:55:36;;;;;;;8.35;2.03;;;15.10;99.90;;;;;;5010191;28;20026;-49
2023/07/30 02:58:02;;;;;;;9.07;2.40;;;15.10;99.90;;;;;;5010010;28;20062;-50
2023/07/30 03:00:27;;;;;;;10.40;3.30;;;15.10;99.90;;;;;;5010172;28;20076;-48
2023/07/30 03:02:53;;;;;;;5.35;2.47;;;15.00;99.90;;;;;;5010019;28;20092;-48
2023/07/30 03:05:19;;;;;;;4.57;2.05;;;15.00;99.90;;;;;;5010143;28;20080;-48
2023/07/30 03:07:44;;;;;;;4.78;1.98;;;15.10;99.90;;;;;;5011174;28;20120;-49
2023/07/30 03:10:10;;;;;;;3.75;1.95;;;15.10;99.90;;;;;;5012165;28;20030;-49
2023/07/30 03:12:36;;;;;;;4.13;2.05;;;15.00;99.90;;;;;;4997470;28;20034;-49
2023/07/30 03:15:01;;;;;;;4.68;2.00;;;15.10;99.90;;;;;;5015282;28;20105;-51
2023/07/30 03:17:27;;;;;;;4.40;2.05;;;15.00;99.90;;;;;;5030740;28;20447;-49
2023/07/30 03:19:53;;;;;;;7.38;2.28;;;15.00;99.90;;;;;;5013997;28;20529;-50
2023/07/30 03:22:18;;;;;;;5.75;2.13;;;15.00;99.90;;;;;;5013597;28;20398;-49
2023/07/30 03:24:47;;;;;;;4.20;1.60;;;15.00;99.90;;;;;;5015173;28;20572;-50
2023/07/30 03:27:13;;;;;;;4.55;1.88;;;15.00;99.90;;;;;;5030307;28;20121;-54
2023/07/30 03:29:38;;;;;;;7.28;2.85;;;15.00;99.90;;;;;;5015109;28;20097;-53
2023/07/30 03:32:04;;;;;;;5.75;1.88;;;15.00;99.90;;;;;;5013656;28;20132;-50
2023/07/30 03:34:30;;;;;;;7.10;2.13;;;15.00;99.90;;;;;;5014865;28;20104;-51
2023/07/30 03:37:00;;;;;;;4.22;2.00;;;15.00;99.90;;;;;;5030293;28;20056;-50
2023/07/30 03:39:25;;;;;;;6.40;2.08;;;14.90;99.90;;;;;;5015525;28;20034;-53
2023/07/30 03:41:51;;;;;;;5.45;1.98;;;14.90;99.90;;;;;;5014682;28;20610;-51
2023/07/30 03:44:17;;;;;;;6.35;2.20;;;15.00;99.90;;;;;;5013402;28;20072;-49
2023/07/30 03:46:44;;;;;;;6.97;2.75;;;15.10;99.90;;;;;;5013363;28;20395;-52
2023/07/30 03:49:09;;;;;;;5.55;2.30;;;15.10;99.90;;;;;;5014344;28;20026;-50
2023/07/30 03:51:36;;;;;;;8.15;3.00;;;15.00;99.90;;;;;;5013449;28;20394;-51
2023/07/30 03:54:01;;;;;;;15.70;3.10;;;15.00;99.90;;;;;;5013104;28;20030;-50
2023/07/30 03:56:27;;;;;;;10.23;2.55;;;15.00;99.90;;;;;;5013351;28;20049;-51
2023/07/30 03:58:54;;;;;;;8.10;2.38;;;15.00;99.90;;;;;;5013548;28;20026;-50
2023/07/30 04:01:19;;;;;;;5.63;2.30;;;14.90;99.90;;;;;;5014765;28;20026;-51
2023/07/30 04:03:45;;;;;;;4.22;1.95;;;14.90;99.90;;;;;;5013301;28;20037;-50
2023/07/30 04:06:10;;;;;;;6.88;2.35;;;14.90;99.90;;;;;;5014517;28;20025;-50
2023/07/30 04:08:36;;;;;;;7.53;2.45;;;14.90;99.90;;;;;;5013127;28;20065;-51
2023/07/30 04:11:04;;;;;;;5.47;2.35;;;14.90;99.90;;;;;;5014347;28;20501;-51
2023/07/30 04:13:29;;;;;;;6.85;2.30;;;14.90;99.90;;;;;;5029268;28;20107;-52
2023/07/30 04:15:55;;;;;;;7.80;2.30;;;15.00;99.90;;;;;;5013072;28;20236;-52
2023/07/30 04:18:22;;;;;;;7.72;2.63;;;15.00;99.90;;;;;;5014635;28;20080;-49
2023/07/30 04:20:48;;;;;;;6.85;2.08;;;15.10;99.90;;;;;;5012323;28;20053;-54
2023/07/30 04:23:13;;;;;;;5.47;2.20;;;15.30;99.90;;;;;;5012312;28;20034;-54
2023/07/30 04:25:40;;;;;;;6.88;1.63;;;15.30;99.90;;;;;;5014239;28;20042;-53
2023/07/30 04:28:06;;;;;;;5.47;1.98;;;15.40;99.90;;;;;;5029187;28;20113;-53
2023/07/30 04:30:32;;;;;;;6.65;1.90;;;15.50;99.90;;;;;;5014252;28;20084;-51
2023/07/30 04:32:58;;;;;;;5.88;2.05;;;15.50;99.90;;;;;;5012432;28;20486;-52
2023/07/30 04:35:24;;;;;;;8.45;2.15;;;15.60;99.90;;;;;;5012646;28;20026;-51
2023/07/30 04:37:50;;;;;;;8.93;2.13;;;15.70;99.90;;;;;;5012762;28;20037;-54
2023/07/30 04:40:17;;;;;;;11.30;2.38;;;15.70;99.90;;;;;;5013316;28;20421;-52
2023/07/30 04:42:42;;;;;;;4.97;1.80;;;15.70;99.90;;;;;;5012437;28;20037;-53
2023/07/30 04:45:09;;;;;;;4.32;1.80;;;15.70;99.90;;;;;;5012454;28;20036;-50
2023/07/30 04:47:38;;;;;;;6.32;1.80;;;15.70;99.90;;;;;;5012737;28;20410;-52
2023/07/30 04:50:04;;;;;;;4.70;1.70;;;15.70;99.90;;;;;;5012526;28;20034;-52
2023/07/30 04:52:30;;;;;;;7.20;1.67;;;15.70;99.90;;;;;;5012377;28;20037;-52
2023/07/30 04:54:56;;;;;;;6.40;1.90;;;15.70;99.90;;;;;;5012144;28;20026;-54
2023/07/30 04:57:22;;;;;;;5.03;2.13;;;15.70;99.90;;;;;;5012652;28;20057;-53
2023/07/30 04:59:47;;;;;;;6.53;1.92;;;15.80;99.90;;;;;;5013886;28;20040;-51
2023/07/30 05:02:14;;;;;;;5.03;1.63;;;15.80;99.90;;;;;;5012440;28;20040;-54
2023/07/30 05:04:40;;;;;;;3.60;2.03;;;15.70;99.90;;;;;;5013738;28;20038;-54
2023/07/30 05:07:05;;;;;;;7.63;2.10;;;15.70;99.90;;;;;;5012413;28;20482;-51
2023/07/30 05:09:31;;;;;;;5.30;1.75;;;15.70;99.90;;;;;;5013723;28;20034;-53
2023/07/30 05:11:56;;;;;;;5.60;1.83;;;15.70;99.90;;;;;;5028405;28;20026;-54
2023/07/30 05:14:22;;;;;;;8.00;1.98;;;15.80;99.90;;;;;;5012782;28;20072;-54
2023/07/30 05:16:48;;;;;;;4.60;1.55;;;15.80;99.90;;;;;;5013365;28;20025;-54
2023/07/30 05:19:13;;;;;;;3.90;1.80;;;15.80;99.90;;;;;;5013250;28;20088;-51
2023/07/30 05:21:39;;;;;;;6.63;1.70;;;15.90;99.90;;;;;;5013200;28;20065;-51
2023/07/30 05:24:04;;;;;;;5.53;1.80;;;15.90;99.90;;;;;;5012931;28;20030;-54
2023/07/30 05:26:30;;;;;;;6.07;1.73;;;15.90;99.90;;;;;;5013068;28;20026;-53
2023/07/30 05:28:56;;;;;;;6.72;2.15;;;15.90;99.90;;;;;;5013054;28;20506;-50
2023/07/30 05:31:21;;;;;;;5.93;1.35;;;16.00;99.90;;;;;;5012776;28;20101;-52
2023/07/30 05:33:47;;;;;;;5.63;1.60;;;16.00;99.90;;;;;;5012811;28;20030;-53
2023/07/30 05:36:12;;;;;;;3.45;1.65;;;16.00;99.90;;;;;;5013287;28;20026;-51
2023/07/30 05:38:38;;;;;;;6.22;1.77;;;16.00;99.90;;;;;;5013035;28;20399;-53
2023/07/30 05:41:03;;;;;;;5.00;1.60;;;16.00;99.90;;;;;;5012833;28;20038;-51
2023/07/30 05:43:29;;;;;;;7.70;2.20;;;16.00;99.90;;;;;;5012388;28;20112;-54
2023/07/30 05:45:55;;;;;;;6.82;1.90;;;16.10;99.90;;;;;;5028001;28;20509;-54
2023/07/30 05:48:20;;;;;;;6.00;2.08;;;16.10;99.90;;;;;;5028090;28;20037;-51
2023/07/30 05:50:46;;;;;;;3.95;1.70;;;16.10;99.90;;;;;;5012484;28;20034;-54
2023/07/30 05:53:11;;;;;;;5.45;2.00;;;16.10;99.90;;;;;;5012355;28;20033;-54
2023/07/30 05:55:37;;;;;;;9.50;3.40;;;16.10;99.90;;;;;;5012454;28;20072;-50
2023/07/30 05:58:02;;;;;;;10.82;3.75;;;16.10;99.90;;;;;;5012478;28;20030;-52
2023/07/30 06:00:28;;;;;;;11.35;3.22;;;16.10;99.90;;;;;;5027889;28;20042;-54
2023/07/30 06:02:54;;;;;;;11.63;3.08;;;16.10;99.90;;;;;;5011937;28;20120;-52
2023/07/30 06:05:19;;;;;;;5.55;1.67;;;16.20;99.90;;;;;;5011757;28;20033;-53
2023/07/30 06:07:45;;;;;;;8.02;1.67;;;16.10;99.90;;;;;;5012206;28;20040;-51
2023/07/30 06:10:10;;;;;;;3.85;1.20;;;16.20;99.90;;;;;;5012300;28;20423;-50
2023/07/30 06:12:36;;;;;;;3.42;1.50;;;16.20;99.90;;;;;;5012006;28;20544;-54
2023/07/30 06:15:02;;;;;;;5.10;1.52;;;16.20;99.90;;;;;;5011699;28;20367;-51
2023/07/30 06:17:27;;;;;;;4.63;1.58;;;16.10;99.90;;;;;;5012166;28;20033;-52
2023/07/30 06:19:53;;;;;;;5.22;1.70;;;16.10;99.90;;;;;;5012059;28;20099;-52
2023/07/30 06:22:19;;;;;;;6.38;1.55;;;16.20;99.90;;;;;;5011747;28;20037;-49
2023/07/30 06:24:44;;;;;;;2.72;1.35;;;16.20;99.90;;;;;;5027036;28;20052;-49
2023/07/30 06:27:12;;;;;;;3.30;1.42;;;16.10;99.90;;;;;;5011975;28;20380;-53
2023/07/30 06:29:37;;;;;;;3.95;1.20;;;16.20;99.90;;;;;;5011976;28;20037;-52
2023/07/30 06:32:03;;;;;;;4.35;1.30;;;16.10;99.90;;;;;;5011611;28;20036;-49
2023/07/30 06:34:29;;;;;;;5.00;1.23;;;16.10;99.90;;;;;;5010117;28;20101;-54
2023/07/30 06:36:55;;;;;;;5.85;1.25;;;16.10;99.90;;;;;;5011907;28;20486;-48
2023/07/30 06:39:21;;;;;;;8.02;2.65;;;16.20;99.90;;;;;;5011650;28;20022;-53
2023/07/30 06:41:47;;;;;;;6.82;1.23;;;16.20;99.90;;;;;;5011652;28;20087;-52
2023/07/30 06:44:13;;;;;;;6.65;1.77;;;16.20;99.90;;;;;;5009228;28;20116;-51
2023/07/30 06:46:38;;;;;;;3.92;1.20;;;16.30;99.90;;;;;;5011608;28;20122;-51
2023/07/30 06:49:04;;;;;;;4.40;1.23;;;16.40;99.90;;;;;;5011595;28;20065;-52
2023/07/30 06:51:30;;;;;;;3.30;1.30;;;16.40;99.90;;;;;;5011450;28;20033;-54
2023/07/30 06:53:56;;;;;;;5.25;1.50;;;16.50;99.90;;;;;;5011356;28;20026;-53
2023/07/30 06:56:21;;;;;;;3.10;1.30;;;16.50;99.90;;;;;;5011556;28;20045;-50
2023/07/30 06:58:47;;;;;;;5.20;1.10;;;16.50;99.90;;;;;;5010474;28;20037;-51
2023/07/30 07:01:13;;;;;;;6.50;1.38;;;16.40;99.90;;;;;;5011615;28;20026;-52
2023/07/30 07:03:38;;;;;;;3.70;1.20;;;16.50;99.90;;;;;;5011480;28;20057;-52
2023/07/30 07:06:04;;;;;;;5.57;1.98;;;16.50;99.90;;;;;;5026555;28;20034;-51
2023/07/30 07:08:30;;;;;;;7.10;1.90;;;16.40;99.90;;;;;;5011333;28;20034;-52
2023/07/30 07:10:56;;;;;;;5.05;1.33;;;16.50;99.90;;;;;;5009887;28;20026;-49
2023/07/30 07:13:22;;;;;;;6.55;1.75;;;16.40;99.90;;;;;;5011165;28;20438;-52
2023/07/30 07:15:47;;;;;;;4.00;1.48;;;16.50;99.90;;;;;;5011109;28;20034;-52
2023/07/30 07:18:13;;;;;;;6.10;1.55;;;16.50;99.90;;;;;;5011331;28;20064;-51
2023/07/30 07:20:39;;;;;;;6.60;1.35;;;16.50;99.90;;;;;;5011176;28;20045;-50
2023/07/30 07:23:04;;;;;;;5.70;1.27;;;16.70;99.90;;;;;;5011158;28;20026;-49
2023/07/30 07:25:30;;;;;;;8.02;1.65;;;16.80;99.90;;;;;;5011354;28;20537;-51
2023/07/30 07:27:56;;;;;;;3.75;1.60;;;16.80;99.90;;;;;;5011442;28;20536;-52
2023/07/30 07:30:22;;;;;;;4.43;1.42;;;17.00;99.90;;;;;;5011759;28;20057;-50
2023/07/30 07:32:50;;;;;;;5.55;1.45;;;17.00;99.90;;;;;;5010873;28;20030;-48
2023/07/30 07:35:18;;;;;;;7.53;1.40;;;17.00;99.90;;;;;;5010886;28;20062;-54
2023/07/30 07:37:43;;;;;;;6.80;2.10;;;17.10;99.90;;;;;;5011620;28;20037;-52
2023/07/30 07:40:09;;;;;;;4.75;1.30;;;17.10;99.90;;;;;;5011558;28;20044;-54
2023/07/30 07:42:35;;;;;;;7.72;1.60;;;17.20;99.90;;;;;;5011332;28;20180;-53
2023/07/30 07:45:01;;;;;;;4.32;1.48;;;17.20;99.90;;;;;;5011154;28;20372;-54
2023/07/30 07:47:27;;;;;;;8.73;2.55;;;17.30;99.90;;;;;;5011367;28;20045;-53
2023/07/30 07:49:52;;;;;;;7.43;1.80;;;17.30;99.90;;;;;;5011477;28;20034;-54
2023/07/30 07:52:19;;;;;;;23.83;12.57;;;17.30;99.90;;;;;;5011604;28;20033;-54
2023/07/30 07:54:45;;;;;;;6.13;2.85;;;17.40;99.90;;;;;;5011341;28;20049;-54
2023/07/30 07:57:10;;;;;;;31.48;12.68;;;17.40;99.90;;;;;;5014409;28;20478;-54
2023/07/30 07:59:36;;;;;;;13.52;5.85;;;17.50;99.90;;;;;;5014925;28;20057;-53
2023/07/30 08:02:02;;;;;;;15.45;5.00;;;17.50;99.90;;;;;;5014673;28;20060;-54
2023/07/30 08:04:28;;;;;;;12.32;3.72;;;17.60;99.90;;;;;;5014389;28;20033;-54
2023/07/30 08:06:53;;;;;;;8.77;2.05;;;17.60;99.90;;;;;;5014626;28;20057;-49
2023/07/30 08:09:19;;;;;;;7.30;2.58;;;17.60;99.90;;;;;;5014650;28;20095;-53
2023/07/30 08:11:44;;;;;;;9.60;1.80;;;17.50;99.90;;;;;;5014511;28;20034;-55
2023/07/30 08:14:10;;;;;;;6.57;1.77;;;17.50;99.90;;;;;;5014212;28;20096;-50
2023/07/30 08:16:36;;;;;;;10.43;2.40;;;17.50;99.90;;;;;;5014344;28;20026;-49
2023/07/30 08:19:01;;;;;;;7.45;2.35;;;17.60;99.90;;;;;;5029375;28;20441;-54
2023/07/30 08:21:27;;;;;;;3.88;1.50;;;17.60;99.90;;;;;;5014209;28;20089;-54
2023/07/30 08:23:52;;;;;;;10.45;2.40;;;17.70;99.90;;;;;;5013981;28;20498;-54
2023/07/30 08:26:18;;;;;;;9.15;2.13;;;17.80;99.90;;;;;;5014274;28;20033;-53
2023/07/30 08:28:44;;;;;;;5.70;1.80;;;17.80;99.90;;;;;;5013990;28;20300;-53
2023/07/30 08:31:09;;;;;;;11.20;2.05;;;17.80;99.90;;;;;;5013982;28;20041;-55
2023/07/30 08:33:35;;;;;;;6.20;1.55;;;17.80;99.90;;;;;;5013973;28;20030;-54
2023/07/30 08:36:01;;;;;;;4.28;1.38;;;17.80;99.90;;;;;;5013864;28;20560;-53
2023/07/30 08:38:30;;;;;;;8.38;1.80;;;17.70;99.90;;;;;;5013913;28;20033;-55
2023/07/30 08:40:55;;;;;;;7.15;1.92;;;17.80;99.90;;;;;;5013973;28;20112;-54
2023/07/30 08:43:21;;;;;;;6.13;1.70;;;17.80;99.90;;;;;;5013584;28;20133;-52
2023/07/30 08:45:46;;;;;;;6.10;2.33;;;17.90;99.90;;;;;;5013500;28;20084;-54
2023/07/30 08:48:12;;;;;;;6.00;1.75;;;17.90;99.90;;;;;;5013900;28;20033;-53
2023/07/30 08:50:39;;;;;;;6.35;1.73;;;18.00;99.90;;;;;;5013738;28;20042;-52
2023/07/30 08:53:07;;;;;;;14.48;2.35;;;18.00;99.90;;;;;;5013394;28;20088;-54
2023/07/30 08:55:34;;;;;;;9.20;2.10;;;18.00;99.90;;;;;;5013521;28;20112;-54
2023/07/30 08:58:02;;;;;;;10.93;1.67;;;18.10;99.90;;;;;;5013696;28;20037;-54
2023/07/30 09:00:32;;;;;;;6.05;1.80;;;18.10;99.90;;;;;;5013715;28;20048;-51
2023/07/30 09:03:03;;;;;;;6.25;1.90;;;18.10;99.90;;;;;;5013319;28;20065;-53
2023/07/30 09:05:29;;;;;;;5.78;1.70;;;18.20;99.90;;;;;;5013193;28;20060;-54
2023/07/30 09:07:58;;;;;;;7.25;1.65;;;18.30;99.90;;;;;;5012193;28;20057;-52
2023/07/30 09:10:26;;;;;;;7.93;2.42;;;18.50;99.90;;;;;;5012077;28;20030;-54
2023/07/30 09:12:57;;;;;;;6.25;1.75;;;18.60;99.90;;;;;;5013030;28;20467;-53
2023/07/30 09:15:37;;;;;;;5.25;1.33;;;18.60;99.90;;;;;;5013155;28;20030;-53
2023/07/30 09:18:08;;;;;;;8.23;1.90;;;18.60;99.90;;;;;;5013181;28;20041;-54
2023/07/30 09:20:38;;;;;;;4.70;1.42;;;18.70;99.90;;;;;;5013201;28;20380;-53
2023/07/30 09:23:05;;;;;;;4.72;1.50;;;18.90;99.90;;;;;;5012761;28;20044;-52
2023/07/30 09:25:30;;;;;;;3.40;1.40;;;19.00;99.90;;;;;;5013211;28;20095;-52
2023/07/30 09:27:56;;;;;;;7.47;2.00;;;19.20;99.90;;;;;;5013162;28;20030;-54
2023/07/30 09:30:26;;;;;;;4.78;1.45;;;19.40;99.90;;;;;;5012842;28;20030;-53
2023/07/30 09:32:54;;;;;;;6.38;1.80;;;19.40;99.90;;;;;;5011106;28;20561;-53
2023/07/30 09:35:20;;;;;;;8.45;1.70;;;19.30;99.90;;;;;;5012807;28;20021;-54
2023/07/30 09:37:45;;;;;;;6.80;1.92;;;19.40;99.90;;;;;;5012836;28;20548;-53
2023/07/30 09:40:14;;;;;;;5.30;1.40;;;19.50;99.90;;;;;;5012954;28;20052;-55
2023/07/30 09:42:47;;;;;;;7.40;1.50;;;19.60;99.90;;;;;;5012267;28;20103;-53
2023/07/30 09:45:21;;;;;;;6.05;1.38;;;19.70;99.90;;;;;;5012383;28;20555;-53
2023/07/30 09:47:47;;;;;;;7.47;1.33;;;19.70;99.90;;;;;;5012594;28;20034;-54
2023/07/30 09:50:14;;;;;;;21.92;10.75;;;19.70;99.90;;;;;;5012602;28;20045;-55
2023/07/30 09:52:40;;;;;;;17.67;8.23;;;19.80;99.90;;;;;;5012110;28;20038;-53
2023/07/30 09:55:07;;;;;;;9.20;3.78;;;19.70;99.90;;;;;;5012437;28;20050;-54
2023/07/30 09:57:33;;;;;;;14.38;6.78;;;19.80;99.90;;;;;;5012469;28;20072;-52
2023/07/30 09:59:58;;;;;;;6.10;1.58;;;19.90;99.90;;;;;;5012389;28;20478;-51
2023/07/30 10:02:25;;;;;;;11.02;4.30;;;20.10;99.90;;;;;;5012042;28;20029;-53
2023/07/30 10:04:55;;;;;;;4.10;1.65;;;20.30;99.90;;;;;;5011916;28;20049;-51
2023/07/30 10:07:24;;;;;;;5.75;1.65;;;20.30;99.90;;;;;;5012111;28;20037;-54
2023/07/30 10:09:51;;;;;;;;;;;20.40;99.90;;;;;;5012660;28;20088;-53
2023/07/30 10:12:21;;;;;;;6.07;1.63;;;20.50;99.90;;;;;;5011869;28;19932;-51
2023/07/30 10:14:47;;;;;;;4.82;1.35;;;20.40;99.90;;;;;;5012181;28;20025;-50
2023/07/30 10:17:13;;;;;;;6.00;1.30;;;20.40;99.90;;;;;;5012236;28;20041;-54
2023/07/30 10:19:38;;;;;;;3.78;1.10;;;20.30;99.90;;;;;;5012036;28;20080;-54
2023/07/30 10:22:13;;;;;;;4.90;1.25;;;20.10;99.90;;;;;;5012012;28;20117;-53
2023/07/30 10:24:39;;;;;;;4.80;1.25;;;19.80;99.90;;;;;;5011838;28;20040;-51
2023/07/30 10:27:07;;;;;;;2.72;1.05;;;19.70;99.90;;;;;;5011892;28;20026;-51
2023/07/30 10:29:35;;;;;;;4.65;1.13;;;19.60;99.90;;;;;;5012061;28;20033;-54
2023/07/30 10:32:02;;;;;;;5.43;1.25;;;19.50;99.90;;;;;;5012069;28;20040;-53
2023/07/30 10:34:45;;;;;;;10.57;4.32;;;19.50;99.90;;;;;;5011789;28;20048;-52
2023/07/30 10:37:10;;;;;;;9.38;3.90;;;19.60;99.90;;;;;;5012063;28;20041;-51
2023/07/30 10:39:36;;;;;;;24.17;10.48;;;19.70;99.90;;;;;;5012223;28;20030;-54
2023/07/30 10:42:01;;;;;;;7.93;3.03;;;20.00;99.90;;;;;;5011449;28;20398;-52
2023/07/30 10:44:30;;;;;;;2.80;1.00;;;20.30;99.90;;;;;;5011543;28;20036;-52
2023/07/30 10:46:58;;;;;;;3.53;0.90;;;20.50;99.90;;;;;;5011707;28;20172;-53
2023/07/30 10:49:24;;;;;;;5.45;1.00;;;20.80;99.90;;;;;;5011626;28;20029;-52
2023/07/30 10:51:55;;;;;;;4.68;1.20;;;20.80;99.90;;;;;;5011418;28;20026;-53
2023/07/30 10:54:20;;;;;;;5.38;1.00;;;20.70;99.90;;;;;;5011455;28;20421;-53
2023/07/30 10:56:46;;;;;;;2.90;0.73;;;20.60;99.90;;;;;;5011953;28;20030;-53
2023/07/30 10:59:13;;;;;;;3.33;0.82;;;20.60;99.90;;;;;;5026662;28;20032;-50
2023/07/30 11:01:41;;;;;;;1.80;0.65;;;20.70;99.90;;;;;;5011426;28;20041;-52
2023/07/30 11:04:25;;;;;;;6.10;1.00;;;20.70;99.90;;;;;;5011213;28;20037;-52
2023/07/30 11:06:51;;;;;;;5.38;1.20;;;20.70;99.90;;;;;;5026552;28;20033;-54
2023/07/30 11:09:21;;;;;;;4.10;0.98;;;20.80;99.90;;;;;;5011420;28;20475;-51
2023/07/30 11:11:47;;;;;;;5.70;1.05;;;20.80;99.90;;;;;;5011109;28;20034;-51
2023/07/30 11:14:17;;;;;;;4.22;0.93;;;20.90;99.90;;;;;;5011007;28;20033;-52
2023/07/30 11:16:50;;;;;;;4.80;1.45;;;21.00;99.90;;;;;;5011665;28;20030;-52
2023/07/30 11:19:17;;;;;;;8.35;1.25;;;21.00;99.90;;;;;;5011122;28;20026;-51
2023/07/30 11:21:48;;;;;;;4.60;0.90;;;21.00;99.90;;;;;;5011094;28;20045;-53
2023/07/30 11:24:14;;;;;;;3.10;1.00;;;21.10;99.90;;;;;;5010713;28;20033;-53
2023/07/30 11:26:41;;;;;;;3.20;0.90;;;21.10;99.90;;;;;;5011336;28;20034;-54
2023/07/30 11:29:16;;;;;;;3.53;0.90;;;21.10;99.90;;;;;;5011238;28;20084;-52
2023/07/30 11:31:47;;;;;;;4.82;0.95;;;21.10;99.90;;;;;;5013562;28;20478;-53
2023/07/30 11:34:14;;;;;;;1.85;0.73;;;21.10;99.90;;;;;;5014756;28;20036;-52
2023/07/30 11:36:41;;;;;;;6.15;1.48;;;21.10;99.90;;;;;;5015146;28;20709;-53
2023/07/30 11:39:07;;;;;;;4.43;1.98;;;21.20;99.90;;;;;;5014989;28;20083;-50
2023/07/30 11:41:33;;;;;;;2.92;1.10;;;21.30;99.90;;;;;;5014704;28;20030;-52
2023/07/30 11:43:59;;;;;;;4.38;0.68;;;21.20;99.90;;;;;;5014943;28;20033;-50
2023/07/30 11:46:25;;;;;;;4.18;0.90;;;21.20;99.90;;;;;;5015020;28;20048;-52
2023/07/30 11:48:53;;;;;;;4.88;1.20;;;21.30;99.90;;;;;;5014802;28;20203;-54
2023/07/30 11:51:26;;;;;;;5.70;1.07;;;21.50;99.90;;;;;;5014494;28;20034;-53
2023/07/30 11:53:53;;;;;;;1.77;0.93;;;21.50;99.90;;;;;;5014307;28;20037;-52
2023/07/30 11:56:24;;;;;;;6.20;0.90;;;21.40;99.90;;;;;;5014712;28;20040;-54
2023/07/30 11:58:51;;;;;;;4.57;1.10;;;21.40;99.90;;;;;;5014646;28;20042;-53
2023/07/30 12:01:18;;;;;;;4.22;1.02;;;21.40;99.90;;;;;;5014656;28;20481;-53
2023/07/30 12:03:44;;;;;;;6.47;1.02;;;21.60;99.90;;;;;;5014139;28;20038;-52
2023/07/30 12:06:10;;;;;;;12.45;1.15;;;21.70;99.90;;;;;;5014620;28;20033;-52
2023/07/30 12:08:37;;;;;;;4.13;0.88;;;21.70;99.90;;;;;;5014911;28;20367;-52
2023/07/30 12:11:07;;;;;;;3.95;0.88;;;21.70;99.90;;;;;;5014596;28;20105;-53
2023/07/30 12:13:33;;;;;;;7.03;1.30;;;21.60;99.90;;;;;;5014155;28;20037;-54
2023/07/30 12:15:59;;;;;;;1.77;0.60;;;21.60;99.90;;;;;;5014197;28;20474;-52
2023/07/30 12:18:27;;;;;;;5.32;0.88;;;21.70;99.90;;;;;;5014214;28;20037;-53
2023/07/30 12:20:53;;;;;;;4.03;0.50;;;21.80;99.90;;;;;;5014337;28;20543;-52
2023/07/30 12:23:20;;;;;;;3.90;0.88;;;21.90;99.90;;;;;;5013949;28;20026;-54
2023/07/30 12:25:46;;;;;;;4.22;1.15;;;21.90;99.90;;;;;;5012713;28;20064;-50
2023/07/30 12:28:12;;;;;;;10.00;1.00;;;21.80;99.90;;;;;;5014037;28;20030;-54
2023/07/30 12:30:38;;;;;;;1.63;0.60;;;21.70;99.90;;;;;;5014589;28;20081;-54
2023/07/30 12:33:05;;;;;;;2.22;0.80;;;21.90;99.90;;;;;;5013769;28;20118;-54
2023/07/30 12:35:31;;;;;;;2.78;1.00;;;22.00;99.90;;;;;;5014034;28;20033;-53
2023/07/30 12:37:58;;;;;;;6.63;1.15;;;21.90;99.90;;;;;;5013972;28;20021;-51
2023/07/30 12:40:23;;;;;;;18.58;8.43;;;21.80;99.90;;;;;;5014022;28;20036;-53
2023/07/30 12:42:49;;;;;;;7.45;2.40;;;21.90;99.90;;;;;;5012549;28;20034;-52